Time;durP1;ratioP1;P1;durP2;ratioP2;P2;SDS_P1;SDS_P2;PMS_P1;PMS_P2;Temp;Humidity;BMP_temperature;BMP_pressure;BME280_temperature;BME280_humidity;BME280_pressure;Samples;Min_cycle;Max_cycle;Signal;HPM_P1;HPM_P2
2024/03/27 00:01:33;;;;;;;4.33;2.90;;;17.20;69.40;;;;;;5069701;28;20119;-75
2024/03/27 00:03:59;;;;;;;5.70;3.10;;;17.10;69.40;;;;;;5071467;28;20095;-75
2024/03/27 00:06:25;;;;;;;6.33;3.10;;;17.10;69.30;;;;;;5070295;28;20123;-75
2024/03/27 00:08:50;;;;;;;5.83;3.00;;;17.10;69.30;;;;;;5069473;28;20025;-75
2024/03/27 00:11:16;;;;;;;5.57;3.27;;;17.10;69.50;;;;;;5071079;28;20028;-75
2024/03/27 00:13:42;;;;;;;7.60;3.13;;;17.20;69.40;;;;;;5070454;28;20470;-75
2024/03/27 00:16:08;;;;;;;4.73;2.90;;;17.10;69.40;;;;;;5068624;28;20028;-75
2024/03/27 00:18:33;;;;;;;5.70;3.20;;;17.10;69.40;;;;;;5069693;28;20028;-75
2024/03/27 00:20:59;;;;;;;6.17;3.73;;;17.10;69.50;;;;;;5070888;28;20364;-75
2024/03/27 00:23:25;;;;;;;6.67;3.10;;;17.10;69.50;;;;;;5086106;28;20386;-75
2024/03/27 00:25:58;;;;;;;8.82;3.60;;;17.10;69.60;;;;;;5071002;28;20032;-75
2024/03/27 00:28:24;;;;;;;7.50;3.67;;;17.10;69.70;;;;;;5070854;28;20532;-76
2024/03/27 00:30:50;;;;;;;4.20;2.78;;;17.10;69.60;;;;;;5070587;28;20032;-75
2024/03/27 00:33:16;;;;;;;3.50;2.63;;;17.10;69.70;;;;;;5070816;28;20528;-75
2024/03/27 00:35:42;;;;;;;4.57;2.83;;;17.10;69.60;;;;;;5086265;28;20089;-75
2024/03/27 00:38:09;;;;;;;4.25;2.38;;;17.10;69.70;;;;;;5070897;28;20032;-75
2024/03/27 00:40:35;;;;;;;3.97;2.63;;;17.10;69.70;;;;;;5085573;28;20033;-75
2024/03/27 00:43:00;;;;;;;5.77;2.60;;;17.10;69.60;;;;;;5069361;28;20024;-75
2024/03/27 00:45:26;;;;;;;4.93;2.53;;;17.10;69.60;;;;;;5085795;28;20032;-75
2024/03/27 00:47:52;;;;;;;3.47;2.30;;;17.10;69.70;;;;;;5085599;28;20039;-75
2024/03/27 00:50:17;;;;;;;5.40;3.10;;;17.10;69.60;;;;;;5070217;28;20357;-75
2024/03/27 00:52:43;;;;;;;4.13;2.20;;;17.10;69.60;;;;;;5068358;28;20025;-76
2024/03/27 00:55:09;;;;;;;4.47;2.20;;;17.10;69.70;;;;;;5085823;28;20032;-75
2024/03/27 00:57:34;;;;;;;3.63;2.13;;;17.10;69.60;;;;;;5085810;28;20414;-76
2024/03/27 01:00:00;;;;;;;4.20;2.03;;;17.10;69.50;;;;;;5085409;28;20477;-75
2024/03/27 01:02:26;;;;;;;3.60;2.60;;;17.10;69.50;;;;;;5065516;28;20040;-75
2024/03/27 01:04:51;;;;;;;4.30;2.37;;;17.00;69.60;;;;;;5068516;28;20121;-75
2024/03/27 01:07:18;;;;;;;4.10;2.03;;;17.00;69.60;;;;;;5069092;28;20041;-76
2024/03/27 01:09:43;;;;;;;4.40;2.38;;;17.00;69.60;;;;;;5069641;28;20031;-76
2024/03/27 01:12:09;;;;;;;3.57;2.10;;;17.00;69.60;;;;;;5085351;28;20037;-75
2024/03/27 01:14:35;;;;;;;5.90;2.70;;;17.00;69.60;;;;;;5068174;28;20263;-75
2024/03/27 01:17:01;;;;;;;4.17;1.90;;;17.00;69.70;;;;;;5069505;28;20110;-75
2024/03/27 01:19:26;;;;;;;4.67;2.17;;;17.00;69.70;;;;;;5070603;28;20026;-75
2024/03/27 01:21:52;;;;;;;2.57;2.03;;;17.00;69.70;;;;;;5069535;28;20075;-75
2024/03/27 01:24:17;;;;;;;3.43;2.10;;;17.00;69.70;;;;;;5069664;28;20029;-75
2024/03/27 01:26:43;;;;;;;4.20;1.87;;;17.00;69.70;;;;;;5069519;28;20479;-75
2024/03/27 01:29:09;;;;;;;4.07;2.40;;;17.00;69.70;;;;;;5069824;28;20027;-75
2024/03/27 01:31:34;;;;;;;3.67;1.73;;;17.00;69.70;;;;;;5069805;28;20036;-75
2024/03/27 01:34:00;;;;;;;3.93;2.10;;;17.00;69.70;;;;;;5069162;28;20094;-75
2024/03/27 01:36:26;;;;;;;3.57;2.00;;;17.00;69.70;;;;;;5069417;28;20028;-75
2024/03/27 01:38:51;;;;;;;3.23;1.77;;;17.00;69.50;;;;;;5069960;28;20051;-75
2024/03/27 01:41:17;;;;;;;4.33;1.87;;;17.00;69.60;;;;;;5069415;28;20017;-76
2024/03/27 01:43:43;;;;;;;4.63;1.70;;;17.00;69.60;;;;;;5068105;28;20033;-76
2024/03/27 01:46:10;;;;;;;2.63;1.67;;;17.00;69.50;;;;;;5070007;28;20158;-76
2024/03/27 01:48:36;;;;;;;3.90;2.05;;;17.00;69.60;;;;;;5069872;28;20031;-76
2024/03/27 01:51:04;;;;;;;3.38;2.15;;;17.00;69.70;;;;;;5068887;28;20028;-75
2024/03/27 01:53:31;;;;;;;2.60;2.00;;;16.90;69.70;;;;;;5068165;28;20729;-75
2024/03/27 01:55:57;;;;;;;1.92;1.60;;;16.90;69.80;;;;;;5067787;28;20036;-75
2024/03/27 01:58:24;;;;;;;2.57;2.07;;;16.90;69.70;;;;;;5054497;28;20030;-76
2024/03/27 02:00:50;;;;;;;3.38;1.80;;;16.90;69.60;;;;;;5069494;28;20253;-75
2024/03/27 02:03:17;;;;;;;4.22;1.73;;;16.90;69.70;;;;;;5068102;28;20048;-76
2024/03/27 02:05:44;;;;;;;3.35;1.90;;;16.90;69.70;;;;;;5084198;28;20032;-74
2024/03/27 02:08:09;;;;;;;5.15;2.40;;;16.90;69.70;;;;;;5069542;28;20070;-75
2024/03/27 02:10:35;;;;;;;3.73;2.00;;;16.90;69.70;;;;;;5069582;28;20080;-74
2024/03/27 02:13:01;;;;;;;3.77;2.20;;;16.90;69.60;;;;;;5068960;28;20424;-75
2024/03/27 02:15:26;;;;;;;5.00;2.10;;;16.90;69.50;;;;;;5084794;28;20028;-75
2024/03/27 02:17:52;;;;;;;4.13;2.47;;;16.90;69.60;;;;;;5069073;28;20370;-75
2024/03/27 02:20:18;;;;;;;2.07;1.40;;;16.90;69.50;;;;;;5068091;28;20032;-76
2024/03/27 02:22:44;;;;;;;3.40;1.83;;;16.90;69.50;;;;;;5069994;28;20786;-74
2024/03/27 02:25:17;;;;;;;2.47;1.50;;;16.90;69.60;;;;;;5069440;28;20025;-75
2024/03/27 02:27:44;;;;;;;3.60;1.92;;;16.90;69.50;;;;;;5084859;28;20029;-76
2024/03/27 02:30:10;;;;;;;2.30;1.70;;;16.90;69.50;;;;;;5068136;28;20033;-76
2024/03/27 02:32:36;;;;;;;2.40;1.58;;;16.80;69.50;;;;;;5069515;28;20538;-76
2024/03/27 02:35:01;;;;;;;2.93;1.50;;;16.90;69.60;;;;;;5068260;28;20032;-75
2024/03/27 02:37:27;;;;;;;2.50;2.00;;;16.90;69.50;;;;;;5068870;28;20024;-75
2024/03/27 02:39:53;;;;;;;4.00;1.50;;;16.80;69.50;;;;;;5070533;28;20021;-74
2024/03/27 02:42:18;;;;;;;3.77;1.67;;;16.80;69.60;;;;;;5071449;28;20022;-75
2024/03/27 02:44:44;;;;;;;2.50;1.50;;;16.80;69.60;;;;;;5072768;28;20032;-75
2024/03/27 02:47:10;;;;;;;2.43;1.50;;;16.80;69.60;;;;;;5072342;28;20020;-75
2024/03/27 02:49:35;;;;;;;2.70;1.87;;;16.80;69.60;;;;;;5071427;28;20036;-74
2024/03/27 02:52:01;;;;;;;2.13;1.60;;;16.80;69.60;;;;;;5072709;28;20157;-75
2024/03/27 02:54:27;;;;;;;5.20;2.40;;;16.80;69.60;;;;;;5071851;28;20121;-75
2024/03/27 02:56:53;;;;;;;2.37;1.33;;;16.80;69.60;;;;;;5072365;28;20024;-76
2024/03/27 02:59:18;;;;;;;2.60;1.50;;;16.80;69.50;;;;;;5072333;28;20461;-75
2024/03/27 03:01:44;;;;;;;4.20;1.47;;;16.80;69.50;;;;;;5071040;28;20400;-75
2024/03/27 03:04:09;;;;;;;1.87;1.60;;;16.80;69.60;;;;;;5072707;28;20025;-75
2024/03/27 03:06:36;;;;;;;2.10;1.30;;;16.80;69.50;;;;;;5070861;28;20123;-76
2024/03/27 03:09:02;;;;;;;2.35;1.50;;;16.80;69.50;;;;;;5072549;28;20016;-75
2024/03/27 03:11:28;;;;;;;2.97;1.50;;;16.80;69.60;;;;;;5070479;28;20040;-75
2024/03/27 03:13:54;;;;;;;2.83;1.40;;;16.80;69.60;;;;;;5087653;28;20481;-75
2024/03/27 03:16:19;;;;;;;2.73;1.50;;;16.80;69.70;;;;;;5072077;28;20778;-75
2024/03/27 03:18:48;;;;;;;1.97;1.30;;;16.80;69.60;;;;;;5070747;28;20449;-76
2024/03/27 03:21:14;;;;;;;1.77;1.40;;;16.70;69.70;;;;;;5070637;28;20454;-75
2024/03/27 03:23:40;;;;;;;2.20;1.43;;;16.70;69.70;;;;;;5087374;28;20033;-75
2024/03/27 03:26:05;;;;;;;3.80;1.43;;;16.70;69.70;;;;;;5087507;28;20044;-75
2024/03/27 03:28:31;;;;;;;1.87;1.43;;;16.70;69.70;;;;;;5071908;28;20362;-75
2024/03/27 03:31:06;;;;;;;2.00;1.50;;;16.70;69.70;;;;;;5071755;28;20095;-74
2024/03/27 03:33:32;;;;;;;2.85;1.63;;;16.70;69.70;;;;;;5061546;28;20347;-75
2024/03/27 03:35:58;;;;;;;1.50;1.23;;;16.70;69.80;;;;;;5070135;28;20039;-76
2024/03/27 03:38:25;;;;;;;3.57;1.37;;;16.70;69.80;;;;;;5070029;28;20028;-74
2024/03/27 03:40:56;;;;;;;1.80;1.30;;;16.70;69.80;;;;;;5070456;28;20297;-75
2024/03/27 03:43:22;;;;;;;2.20;1.35;;;16.70;69.80;;;;;;5087639;28;20037;-77
2024/03/27 03:45:48;;;;;;;3.38;1.40;;;16.70;69.90;;;;;;5087370;28;20111;-75
2024/03/27 03:48:13;;;;;;;2.70;1.23;;;16.70;69.80;;;;;;5086743;28;20139;-75
2024/03/27 03:50:39;;;;;;;2.50;1.40;;;16.70;69.60;;;;;;5071160;28;20099;-75
2024/03/27 03:53:05;;;;;;;2.40;1.17;;;16.70;69.80;;;;;;5071578;28;20078;-75
2024/03/27 03:55:30;;;;;;;2.77;1.40;;;16.70;69.80;;;;;;5071430;28;20060;-75
2024/03/27 03:57:57;;;;;;;2.23;1.33;;;16.70;69.80;;;;;;5087173;28;20032;-75
2024/03/27 04:00:24;;;;;;;8.15;1.48;;;16.70;69.80;;;;;;5086405;28;20107;-76
2024/03/27 04:02:51;;;;;;;2.40;1.38;;;16.60;69.80;;;;;;5071251;28;20028;-76
2024/03/27 04:05:17;;;;;;;2.90;1.50;;;16.60;69.80;;;;;;5086622;28;20033;-75
2024/03/27 04:07:45;;;;;;;3.20;1.43;;;16.60;69.90;;;;;;5086486;28;20046;-75
2024/03/27 04:10:11;;;;;;;2.65;1.52;;;16.60;69.80;;;;;;5069645;28;20055;-75
2024/03/27 04:12:37;;;;;;;3.97;1.10;;;16.60;69.70;;;;;;5069604;28;20060;-75
2024/03/27 04:15:05;;;;;;;5.50;1.20;;;16.60;69.90;;;;;;5071152;28;20024;-75
2024/03/27 04:17:31;;;;;;;5.05;1.52;;;16.60;69.90;;;;;;5069597;28;20115;-75
2024/03/27 04:20:01;;;;;;;2.25;1.08;;;16.60;70.00;;;;;;5086842;28;20710;-74
2024/03/27 04:22:30;;;;;;;2.63;1.15;;;16.60;69.90;;;;;;5070971;28;20119;-75
2024/03/27 04:24:56;;;;;;;2.33;1.60;;;16.60;69.90;;;;;;5071467;28;20796;-76
2024/03/27 04:27:22;;;;;;;5.53;1.20;;;16.60;69.80;;;;;;5085884;28;20033;-75
2024/03/27 04:29:52;;;;;;;4.73;1.20;;;16.60;69.70;;;;;;5071011;28;20024;-75
2024/03/27 04:32:18;;;;;;;3.85;1.70;;;16.60;69.80;;;;;;5070672;28;20048;-74
2024/03/27 04:34:43;;;;;;;1.77;1.53;;;16.50;69.90;;;;;;5070727;28;20047;-75
2024/03/27 04:37:09;;;;;;;2.30;1.20;;;16.50;69.90;;;;;;5086313;28;20469;-75
2024/03/27 04:39:35;;;;;;;1.83;1.03;;;16.50;69.80;;;;;;5085725;28;20029;-75
2024/03/27 04:42:02;;;;;;;3.72;1.20;;;16.50;69.80;;;;;;5070787;28;20013;-75
2024/03/27 04:44:28;;;;;;;;;;;16.50;70.00;;;;;;5086555;28;20060;-74
2024/03/27 04:46:54;;;;;;;1.30;1.07;;;16.50;69.80;;;;;;5069892;28;19943;-75
2024/03/27 04:49:19;;;;;;;3.03;1.23;;;16.50;69.90;;;;;;5068995;28;20063;-74
2024/03/27 04:51:45;;;;;;;1.80;1.17;;;16.50;69.90;;;;;;5070492;28;20024;-76
2024/03/27 04:54:11;;;;;;;3.03;1.37;;;16.50;69.80;;;;;;5085878;28;20144;-75
2024/03/27 04:56:36;;;;;;;1.93;1.13;;;16.50;69.80;;;;;;5070281;28;20381;-75
2024/03/27 04:59:02;;;;;;;1.93;1.30;;;16.50;69.90;;;;;;5085638;28;20120;-75
2024/03/27 05:01:28;;;;;;;3.13;1.17;;;16.50;69.80;;;;;;5085256;28;20043;-75
2024/03/27 05:03:53;;;;;;;3.17;1.23;;;16.50;69.90;;;;;;5085406;28;20717;-75
2024/03/27 05:06:19;;;;;;;2.00;1.20;;;16.40;69.80;;;;;;5085079;28;20493;-75
2024/03/27 05:08:45;;;;;;;4.70;1.60;;;16.50;69.80;;;;;;5068619;28;20047;-76
2024/03/27 05:11:10;;;;;;;2.90;1.10;;;16.50;69.90;;;;;;5070475;28;20154;-75
2024/03/27 05:13:36;;;;;;;1.60;1.03;;;16.50;69.80;;;;;;5069827;28;20033;-75
2024/03/27 05:16:02;;;;;;;1.90;1.20;;;16.50;69.90;;;;;;5085235;28;20036;-75
2024/03/27 05:18:27;;;;;;;1.30;1.20;;;16.50;69.90;;;;;;5068459;28;20029;-76
2024/03/27 05:20:54;;;;;;;1.90;1.20;;;16.50;69.90;;;;;;5085864;28;20563;-75
2024/03/27 05:23:21;;;;;;;2.42;1.10;;;16.40;69.90;;;;;;5084829;28;20067;-75
2024/03/27 05:25:47;;;;;;;1.75;1.13;;;16.40;69.90;;;;;;5068547;28;20028;-75
2024/03/27 05:28:12;;;;;;;2.00;1.10;;;16.50;69.90;;;;;;5068511;28;20020;-74
2024/03/27 05:30:39;;;;;;;2.03;1.10;;;16.50;70.00;;;;;;5068799;28;20287;-75
2024/03/27 05:33:05;;;;;;;2.72;1.23;;;16.50;70.00;;;;;;5070096;28;20031;-75
2024/03/27 05:35:31;;;;;;;0.90;0.90;;;16.50;70.20;;;;;;5069788;28;20051;-75
2024/03/27 05:37:56;;;;;;;2.03;1.33;;;16.50;70.10;;;;;;5068163;28;20265;-74
2024/03/27 05:40:24;;;;;;;1.70;0.93;;;16.50;70.30;;;;;;5068484;28;20025;-74
2024/03/27 05:42:50;;;;;;;1.98;1.20;;;16.50;70.30;;;;;;5068134;28;20028;-74
2024/03/27 05:45:16;;;;;;;2.35;1.10;;;16.40;70.30;;;;;;5069625;28;20528;-75
2024/03/27 05:47:42;;;;;;;2.40;0.87;;;16.50;70.40;;;;;;5070039;28;20100;-74
2024/03/27 05:50:09;;;;;;;1.50;1.40;;;16.40;70.40;;;;;;5069069;28;20098;-75
2024/03/27 05:52:36;;;;;;;1.80;0.82;;;16.40;70.30;;;;;;5069674;28;20158;-74
2024/03/27 05:55:03;;;;;;;1.75;1.02;;;16.40;70.40;;;;;;5069315;28;20025;-74
2024/03/27 05:57:30;;;;;;;2.30;1.27;;;16.40;70.40;;;;;;5069976;28;20040;-76
2024/03/27 05:59:56;;;;;;;1.88;0.90;;;16.40;70.40;;;;;;5069677;28;20017;-75
2024/03/27 06:02:21;;;;;;;1.77;1.20;;;16.40;70.30;;;;;;5084998;28;20028;-75
2024/03/27 06:04:47;;;;;;;1.23;1.00;;;16.40;70.30;;;;;;5069164;28;20454;-75
2024/03/27 06:07:13;;;;;;;1.30;1.20;;;16.40;70.40;;;;;;5084403;28;20036;-76
2024/03/27 06:09:39;;;;;;;1.60;1.00;;;16.40;70.40;;;;;;5069242;28;20036;-75
2024/03/27 06:12:05;;;;;;;1.30;1.00;;;16.40;70.40;;;;;;5085096;28;20466;-75
2024/03/27 06:14:30;;;;;;;1.07;0.80;;;16.30;70.40;;;;;;5073437;28;20029;-75
2024/03/27 06:16:56;;;;;;;2.30;0.90;;;16.40;70.40;;;;;;5088823;28;20024;-75
2024/03/27 06:19:22;;;;;;;1.77;1.00;;;16.30;70.50;;;;;;5072899;28;20020;-74
2024/03/27 06:21:47;;;;;;;1.17;0.80;;;16.30;70.40;;;;;;5073406;28;20051;-75
2024/03/27 06:24:13;;;;;;;2.10;1.10;;;16.30;70.40;;;;;;5073173;28;20028;-74
2024/03/27 06:26:39;;;;;;;1.30;0.90;;;16.30;70.50;;;;;;5073208;28;20107;-75
2024/03/27 06:29:04;;;;;;;2.70;1.00;;;16.30;70.50;;;;;;5073416;28;20020;-75
2024/03/27 06:31:30;;;;;;;2.07;0.90;;;16.30;70.50;;;;;;5073184;28;20036;-75
2024/03/27 06:33:56;;;;;;;2.93;0.93;;;16.30;70.50;;;;;;5073288;28;20720;-75
2024/03/27 06:36:22;;;;;;;3.10;1.00;;;16.30;70.50;;;;;;5072429;28;20369;-75
2024/03/27 06:38:50;;;;;;;2.10;1.43;;;16.30;70.40;;;;;;5071527;28;20024;-76
2024/03/27 06:41:16;;;;;;;2.20;1.10;;;16.30;70.30;;;;;;5071389;28;20089;-75
2024/03/27 06:43:42;;;;;;;3.35;1.08;;;16.30;70.30;;;;;;5073184;28;20017;-74
2024/03/27 06:46:08;;;;;;;2.13;0.90;;;16.30;70.20;;;;;;5072912;28;20462;-75
2024/03/27 06:48:43;;;;;;;3.63;1.27;;;16.30;70.30;;;;;;5072446;28;20028;-75
2024/03/27 06:51:09;;;;;;;1.20;0.80;;;16.30;70.30;;;;;;5071205;28;20377;-74
2024/03/27 06:53:35;;;;;;;1.02;0.70;;;16.30;70.40;;;;;;5057258;28;20551;-75
2024/03/27 06:56:05;;;;;;;2.53;0.98;;;16.30;70.40;;;;;;5072744;28;20035;-75
2024/03/27 06:58:31;;;;;;;2.15;1.13;;;16.30;70.40;;;;;;5087760;28;20035;-75
2024/03/27 07:00:57;;;;;;;4.17;1.17;;;16.30;70.40;;;;;;5072262;28;20390;-75
2024/03/27 07:03:23;;;;;;;;;;;16.30;70.40;;;;;;5070861;28;20047;-74
2024/03/27 07:05:49;;;;;;;1.37;1.20;;;16.30;70.40;;;;;;5070735;28;21359;-75
2024/03/27 07:08:14;;;;;;;3.60;1.10;;;16.30;70.40;;;;;;5072173;28;20059;-75
2024/03/27 07:10:40;;;;;;;1.90;0.90;;;16.30;70.40;;;;;;5087833;28;20032;-74
2024/03/27 07:13:06;;;;;;;1.83;0.93;;;16.30;70.30;;;;;;5071544;28;20024;-75
2024/03/27 07:15:31;;;;;;;2.43;1.00;;;16.30;70.40;;;;;;5072049;28;20497;-75
2024/03/27 07:17:57;;;;;;;1.10;0.87;;;16.30;70.30;;;;;;5087709;28;20028;-75
2024/03/27 07:20:23;;;;;;;1.10;0.90;;;16.30;70.30;;;;;;5071790;28;20150;-75
2024/03/27 07:22:48;;;;;;;0.80;0.80;;;16.30;70.20;;;;;;5087449;28;20020;-75
2024/03/27 07:25:14;;;;;;;0.97;0.80;;;16.30;70.10;;;;;;5069551;28;20032;-75
2024/03/27 07:27:40;;;;;;;1.70;0.77;;;16.30;70.10;;;;;;5071720;28;20036;-75
2024/03/27 07:30:06;;;;;;;1.03;0.87;;;16.30;70.10;;;;;;5087733;28;20035;-74
2024/03/27 07:32:32;;;;;;;3.33;1.00;;;16.30;70.00;;;;;;5072156;28;20066;-76
2024/03/27 07:34:58;;;;;;;2.22;0.95;;;16.30;70.00;;;;;;5087507;28;20028;-76
2024/03/27 07:37:24;;;;;;;2.90;0.93;;;16.30;70.10;;;;;;5087287;28;20355;-75
2024/03/27 07:39:49;;;;;;;1.53;0.80;;;16.30;70.00;;;;;;5071850;28;20366;-75
2024/03/27 07:42:16;;;;;;;2.53;0.73;;;16.30;70.00;;;;;;5072035;28;20027;-75
2024/03/27 07:44:42;;;;;;;1.38;1.08;;;16.30;70.00;;;;;;5071935;28;20107;-76
2024/03/27 07:47:08;;;;;;;2.08;0.85;;;16.30;70.00;;;;;;5071477;28;20067;-75
2024/03/27 07:49:33;;;;;;;1.00;0.80;;;16.30;70.00;;;;;;5087197;28;20462;-75
2024/03/27 07:51:59;;;;;;;2.33;0.90;;;16.30;70.10;;;;;;5071196;28;20021;-73
2024/03/27 07:54:25;;;;;;;1.30;0.80;;;16.30;70.00;;;;;;5071942;28;20466;-74
2024/03/27 07:57:04;;;;;;;3.57;0.80;;;16.30;70.00;;;;;;5070077;28;20032;-75
2024/03/27 07:59:29;;;;;;;3.40;1.10;;;16.30;70.00;;;;;;5070120;28;20028;-74
2024/03/27 08:01:55;;;;;;;1.47;0.97;;;16.30;70.00;;;;;;5069265;28;20055;-75
2024/03/27 08:04:21;;;;;;;3.57;1.43;;;16.30;70.00;;;;;;5086939;28;20048;-75
2024/03/27 08:06:46;;;;;;;0.77;0.73;;;16.30;69.90;;;;;;5086230;28;20052;-74
2024/03/27 08:09:12;;;;;;;2.43;0.80;;;16.30;69.90;;;;;;5071181;28;20373;-74
2024/03/27 08:11:37;;;;;;;2.27;0.90;;;16.30;69.90;;;;;;5086039;28;20033;-75
2024/03/27 08:14:06;;;;;;;1.60;0.87;;;16.30;69.80;;;;;;5069898;28;20020;-75
2024/03/27 08:16:32;;;;;;;4.05;0.90;;;16.30;69.70;;;;;;5070824;28;20296;-76
2024/03/27 08:18:58;;;;;;;1.63;0.87;;;16.30;69.70;;;;;;5071176;28;20472;-75
2024/03/27 08:21:23;;;;;;;0.73;0.60;;;16.30;69.70;;;;;;5070276;28;20056;-74
2024/03/27 08:23:49;;;;;;;1.67;0.90;;;16.40;69.70;;;;;;5070736;28;20089;-74
2024/03/27 08:26:15;;;;;;;4.03;0.90;;;16.50;69.20;;;;;;5063409;28;20170;-75
2024/03/27 08:28:41;;;;;;;1.45;0.90;;;16.50;69.20;;;;;;5082180;28;20029;-75
2024/03/27 08:31:08;;;;;;;1.30;1.10;;;16.60;69.10;;;;;;5069424;28;20031;-76
2024/03/27 08:33:34;;;;;;;2.45;1.27;;;16.60;69.00;;;;;;5085510;28;20025;-75
2024/03/27 08:36:04;;;;;;;1.08;0.90;;;16.60;68.90;;;;;;5068040;28;20037;-76
2024/03/27 08:38:29;;;;;;;2.08;1.25;;;16.70;68.80;;;;;;5070320;28;20033;-75
2024/03/27 08:40:56;;;;;;;1.73;1.03;;;16.70;68.60;;;;;;5069615;28;20095;-74
2024/03/27 08:43:22;;;;;;;2.58;0.98;;;16.80;68.40;;;;;;5068950;28;20029;-75
2024/03/27 08:45:48;;;;;;;2.37;1.17;;;16.90;68.00;;;;;;5070684;28;20539;-75
2024/03/27 08:48:14;;;;;;;3.33;0.77;;;17.00;67.60;;;;;;5070308;28;20021;-74
2024/03/27 08:50:40;;;;;;;2.87;1.10;;;17.10;67.10;;;;;;5069486;28;20029;-75
2024/03/27 08:53:06;;;;;;;3.80;2.05;;;17.30;66.80;;;;;;5085477;28;20165;-78
2024/03/27 08:55:38;;;;;;;7.72;4.43;;;17.60;65.80;;;;;;5085833;28;20041;-79
2024/03/27 08:58:04;;;;;;;9.23;4.68;;;17.60;66.10;;;;;;5069097;28;20117;-78
2024/03/27 09:00:30;;;;;;;5.93;3.60;;;17.50;66.30;;;;;;5086030;28;20433;-77
2024/03/27 09:02:56;;;;;;;7.13;4.40;;;17.40;66.40;;;;;;5086060;28;20029;-78
2024/03/27 09:05:22;;;;;;;6.65;3.80;;;17.40;66.40;;;;;;5069569;28;20440;-76
2024/03/27 09:07:48;;;;;;;5.80;3.83;;;17.40;66.60;;;;;;5085132;28;20052;-76
2024/03/27 09:10:15;;;;;;;9.13;3.70;;;17.20;66.90;;;;;;5068390;28;20047;-76
2024/03/27 09:12:40;;;;;;;7.43;3.42;;;17.20;67.30;;;;;;5061847;28;20029;-75
2024/03/27 09:15:06;;;;;;;8.30;4.17;;;17.20;67.50;;;;;;5068857;28;20029;-76
2024/03/27 09:17:32;;;;;;;9.80;4.03;;;17.10;67.70;;;;;;5068841;28;20028;-77
2024/03/27 09:19:58;;;;;;;8.67;4.10;;;17.10;67.70;;;;;;5073009;28;20844;-77
2024/03/27 09:22:23;;;;;;;8.13;3.70;;;17.10;67.80;;;;;;5066886;28;20028;-77
2024/03/27 09:24:54;;;;;;;7.57;3.23;;;17.10;67.90;;;;;;5074334;28;20031;-76
2024/03/27 09:27:20;;;;;;;5.10;2.92;;;17.10;67.90;;;;;;5067302;28;20090;-76
2024/03/27 09:29:50;;;;;;;4.33;2.90;;;17.00;68.30;;;;;;5085429;28;20462;-77
2024/03/27 09:32:16;;;;;;;11.95;2.97;;;17.00;68.70;;;;;;5085334;28;20082;-77
2024/03/27 09:34:42;;;;;;;13.33;3.30;;;17.00;69.00;;;;;;5081054;28;20020;-77
2024/03/27 09:37:07;;;;;;;7.10;3.47;;;17.00;69.10;;;;;;5060077;28;20025;-76
2024/03/27 09:39:33;;;;;;;4.97;2.90;;;16.90;69.50;;;;;;5069587;28;20020;-77
2024/03/27 09:42:02;;;;;;;4.40;2.50;;;16.90;69.50;;;;;;5085212;28;20029;-78
2024/03/27 09:44:29;;;;;;;9.43;3.10;;;16.90;69.70;;;;;;5069587;28;20475;-77
2024/03/27 09:46:59;;;;;;;5.80;2.50;;;16.90;69.70;;;;;;5068548;28;20765;-78
2024/03/27 09:49:25;;;;;;;6.80;3.13;;;16.90;69.70;;;;;;5075803;28;20028;-77
2024/03/27 09:51:52;;;;;;;;;;;16.90;69.70;;;;;;5073334;28;20021;-77
2024/03/27 09:54:19;;;;;;;8.63;3.40;;;16.90;69.90;;;;;;5072377;28;19915;-78
2024/03/27 09:56:45;;;;;;;6.47;2.65;;;16.90;69.80;;;;;;5073764;28;20084;-77
2024/03/27 09:59:12;;;;;;;6.53;2.47;;;16.90;69.90;;;;;;5074241;28;20035;-79
2024/03/27 10:01:38;;;;;;;4.43;2.38;;;16.90;70.00;;;;;;5072415;28;20036;-77
2024/03/27 10:04:05;;;;;;;7.50;2.83;;;16.90;69.90;;;;;;5072387;28;20020;-78
2024/03/27 10:06:30;;;;;;;8.43;2.80;;;16.90;69.80;;;;;;5088282;28;20051;-78
2024/03/27 10:08:56;;;;;;;10.00;2.90;;;17.00;69.60;;;;;;5089378;28;20032;-77
2024/03/27 10:11:22;;;;;;;8.07;2.58;;;17.10;69.40;;;;;;5089939;28;20051;-79
2024/03/27 10:13:49;;;;;;;5.17;2.87;;;17.20;68.90;;;;;;5089039;28;20477;-77
2024/03/27 10:16:15;;;;;;;90.40;40.97;;;17.50;68.10;;;;;;5089293;28;20029;-77
2024/03/27 10:18:41;;;;;;;90.30;40.10;;;17.70;66.90;;;;;;5071017;28;20035;-76
2024/03/27 10:21:07;;;;;;;59.80;27.53;;;17.90;66.60;;;;;;5070792;28;20047;-78
2024/03/27 10:23:34;;;;;;;84.53;38.03;;;17.90;66.10;;;;;;5072594;28;20033;-78
2024/03/27 10:26:04;;;;;;;80.20;36.25;;;17.90;66.60;;;;;;5069929;28;20033;-76
2024/03/27 10:28:36;;;;;;;73.10;34.42;;;18.00;66.50;;;;;;5071349;28;20033;-77
2024/03/27 10:31:03;;;;;;;76.63;32.78;;;18.00;66.20;;;;;;5071022;28;20078;-76
2024/03/27 10:33:28;;;;;;;;;;;18.00;66.40;;;;;;5073364;28;20027;-79
2024/03/27 10:35:55;;;;;;;56.90;28.60;;;18.30;65.50;;;;;;5071472;28;19991;-76
2024/03/27 10:38:23;;;;;;;62.08;29.00;;;18.40;65.30;;;;;;5071669;28;20381;-79
2024/03/27 10:40:55;;;;;;;228.30;124.18;;;18.40;65.30;;;;;;5071511;28;20059;-77
2024/03/27 10:43:30;;;;;;;87.32;44.58;;;18.40;65.20;;;;;;5072149;28;20052;-79
2024/03/27 10:45:58;;;;;;;103.05;49.78;;;18.40;65.20;;;;;;5074692;28;20044;-79
2024/03/27 10:48:24;;;;;;;77.47;37.58;;;18.30;65.40;;;;;;5072232;28;20033;-79
2024/03/27 10:50:51;;;;;;;74.60;38.67;;;18.20;65.80;;;;;;5071895;28;20060;-79
2024/03/27 10:53:18;;;;;;;64.20;33.33;;;18.40;65.60;;;;;;5071268;28;20060;-77
2024/03/27 10:55:44;;;;;;;65.20;33.42;;;18.70;64.90;;;;;;5071401;28;20068;-79
2024/03/27 10:58:11;;;;;;;65.37;30.33;;;18.90;64.30;;;;;;5071470;28;20068;-77
2024/03/27 11:00:39;;;;;;;;;;;18.80;64.40;;;;;;5071782;28;20031;-77
2024/03/27 11:03:08;;;;;;;53.05;27.35;;;18.80;64.70;;;;;;5072053;28;19908;-77
2024/03/27 11:05:34;;;;;;;55.95;27.30;;;18.70;65.10;;;;;;5071404;28;20135;-77
2024/03/27 11:08:00;;;;;;;55.08;26.23;;;18.60;65.80;;;;;;5072755;28;20370;-79
2024/03/27 11:10:26;;;;;;;56.57;25.60;;;18.70;65.90;;;;;;5072518;28;20029;-78
2024/03/27 11:12:56;;;;;;;61.42;27.25;;;18.90;65.60;;;;;;5071430;28;20033;-77
2024/03/27 11:15:22;;;;;;;50.08;25.10;;;18.90;65.90;;;;;;5054093;28;20032;-77
2024/03/27 11:17:54;;;;;;;47.40;23.37;;;18.80;65.80;;;;;;5068155;28;20086;-77
2024/03/27 11:20:24;;;;;;;44.45;23.05;;;18.80;66.00;;;;;;5067993;28;20020;-78
2024/03/27 11:22:53;;;;;;;45.45;23.08;;;18.70;66.00;;;;;;5069336;28;20135;-78
2024/03/27 11:25:23;;;;;;;43.03;21.92;;;18.60;66.40;;;;;;5069654;28;20056;-78
2024/03/27 11:27:49;;;;;;;45.28;22.10;;;18.70;66.50;;;;;;5068668;28;20130;-76
2024/03/27 11:30:22;;;;;;;43.23;21.10;;;18.80;66.80;;;;;;5067423;28;20020;-78
2024/03/27 11:32:49;;;;;;;44.88;21.17;;;19.00;66.30;;;;;;5066738;28;20737;-76
2024/03/27 11:35:16;;;;;;;42.10;20.27;;;19.00;66.60;;;;;;5056069;28;20477;-77
2024/03/27 11:37:42;;;;;;;36.22;19.95;;;19.00;67.10;;;;;;5069190;28;20107;-76
2024/03/27 11:40:08;;;;;;;38.20;19.87;;;18.90;67.50;;;;;;5070274;28;20533;-76
2024/03/27 11:42:37;;;;;;;41.10;19.55;;;18.90;67.90;;;;;;5072091;28;20257;-76
2024/03/27 11:45:04;;;;;;;34.78;18.35;;;18.90;68.00;;;;;;5070529;28;20373;-79
2024/03/27 11:47:31;;;;;;;35.63;17.70;;;18.90;68.20;;;;;;5071196;28;20029;-77
2024/03/27 11:49:56;;;;;;;46.45;22.38;;;18.90;68.20;;;;;;5071757;28;20027;-77
2024/03/27 11:52:24;;;;;;;36.43;18.23;;;18.90;68.30;;;;;;5068513;28;20024;-77
2024/03/27 11:54:53;;;;;;;39.58;17.92;;;18.90;68.40;;;;;;5066318;28;20036;-76
2024/03/27 11:57:20;;;;;;;34.15;17.42;;;18.90;68.60;;;;;;5070375;28;20020;-78
2024/03/27 11:59:46;;;;;;;31.85;16.10;;;18.80;68.80;;;;;;5070389;28;20024;-77
2024/03/27 12:02:11;;;;;;;37.23;17.00;;;18.80;68.70;;;;;;5069973;28;20071;-77
2024/03/27 12:04:39;;;;;;;36.87;17.03;;;18.90;68.70;;;;;;5069896;28;20052;-77
2024/03/27 12:07:05;;;;;;;32.13;15.75;;;18.90;68.60;;;;;;5070624;28;20045;-77
2024/03/27 12:09:38;;;;;;;31.35;15.93;;;18.90;68.40;;;;;;5069472;28;20082;-81
2024/03/27 12:12:04;;;;;;;32.97;15.88;;;18.90;68.40;;;;;;5069894;28;20127;-77
2024/03/27 12:14:31;;;;;;;30.83;15.05;;;18.90;67.80;;;;;;5069911;28;20028;-79
2024/03/27 12:16:57;;;;;;;27.23;13.45;;;19.00;67.60;;;;;;5068727;28;20074;-79
2024/03/27 12:19:37;;;;;;;29.35;13.35;;;19.00;67.20;;;;;;5068235;28;20417;-77
2024/03/27 12:22:03;;;;;;;30.73;13.68;;;19.10;66.80;;;;;;5064446;28;20108;-79
2024/03/27 12:24:29;;;;;;;25.60;12.80;;;19.20;66.40;;;;;;5052927;28;20037;-77
2024/03/27 12:26:55;;;;;;;26.60;11.60;;;19.30;66.20;;;;;;5052246;28;20079;-75
2024/03/27 12:29:20;;;;;;;23.10;11.93;;;19.30;66.10;;;;;;5061519;28;20086;-76
2024/03/27 12:31:49;;;;;;;25.57;11.97;;;19.40;66.10;;;;;;5065909;28;20020;-77
2024/03/27 12:34:15;;;;;;;22.70;11.05;;;19.40;65.80;;;;;;5064716;28;20017;-76
2024/03/27 12:36:41;;;;;;;23.53;11.60;;;19.50;65.40;;;;;;5067264;28;20027;-77
2024/03/27 12:39:06;;;;;;;26.23;11.20;;;19.50;65.00;;;;;;5060922;28;20029;-79